sensor_id;sensor_type;location;lat;lon;timestamp;P1;durP1;ratioP1;P2;durP2;ratioP2
11924;SDS011;6022;48.768;18.608;2023-05-07T00:01:57;1.27;;;1.00;;
11924;SDS011;6022;48.768;18.608;2023-05-07T00:04:26;3.83;;;1.97;;
11924;SDS011;6022;48.768;18.608;2023-05-07T00:06:55;2.20;;;1.53;;
11924;SDS011;6022;48.768;18.608;2023-05-07T00:09:23;1.83;;;1.57;;
11924;SDS011;6022;48.768;18.608;2023-05-07T00:11:51;1.90;;;1.47;;
11924;SDS011;6022;48.768;18.608;2023-05-07T00:14:19;2.13;;;1.93;;
11924;SDS011;6022;48.768;18.608;2023-05-07T00:16:47;1.40;;;1.30;;
11924;SDS011;6022;48.768;18.608;2023-05-07T00:19:16;3.60;;;2.13;;
11924;SDS011;6022;48.768;18.608;2023-05-07T00:21:45;1.23;;;1.20;;
11924;SDS011;6022;48.768;18.608;2023-05-07T00:24:13;2.13;;;1.40;;
11924;SDS011;6022;48.768;18.608;2023-05-07T00:26:41;1.47;;;1.37;;
11924;SDS011;6022;48.768;18.608;2023-05-07T00:29:10;2.10;;;1.57;;
11924;SDS011;6022;48.768;18.608;2023-05-07T00:31:38;2.10;;;1.37;;
11924;SDS011;6022;48.768;18.608;2023-05-07T00:34:07;1.63;;;1.27;;
11924;SDS011;6022;48.768;18.608;2023-05-07T00:36:35;1.53;;;1.43;;
11924;SDS011;6022;48.768;18.608;2023-05-07T00:39:04;1.23;;;1.13;;
11924;SDS011;6022;48.768;18.608;2023-05-07T00:41:34;2.73;;;1.73;;
11924;SDS011;6022;48.768;18.608;2023-05-07T00:44:02;2.27;;;2.07;;
11924;SDS011;6022;48.768;18.608;2023-05-07T00:46:35;1.67;;;1.57;;
11924;SDS011;6022;48.768;18.608;2023-05-07T00:49:04;1.33;;;1.23;;
11924;SDS011;6022;48.768;18.608;2023-05-07T00:51:33;1.40;;;1.30;;
11924;SDS011;6022;48.768;18.608;2023-05-07T00:54:02;4.03;;;1.53;;
11924;SDS011;6022;48.768;18.608;2023-05-07T00:56:31;1.80;;;1.67;;
11924;SDS011;6022;48.768;18.608;2023-05-07T00:59:01;1.77;;;1.47;;
11924;SDS011;6022;48.768;18.608;2023-05-07T01:01:31;1.47;;;1.07;;
11924;SDS011;6022;48.768;18.608;2023-05-07T01:04:01;1.60;;;1.50;;
11924;SDS011;6022;48.768;18.608;2023-05-07T01:06:29;2.10;;;2.00;;
11924;SDS011;6022;48.768;18.608;2023-05-07T01:09:01;1.17;;;1.03;;
11924;SDS011;6022;48.768;18.608;2023-05-07T01:11:31;2.37;;;2.17;;
11924;SDS011;6022;48.768;18.608;2023-05-07T01:14:00;2.17;;;1.83;;
11924;SDS011;6022;48.768;18.608;2023-05-07T01:16:29;1.80;;;1.47;;
11924;SDS011;6022;48.768;18.608;2023-05-07T01:18:57;4.30;;;1.47;;
11924;SDS011;6022;48.768;18.608;2023-05-07T01:21:26;1.87;;;1.77;;
11924;SDS011;6022;48.768;18.608;2023-05-07T01:24:01;2.50;;;1.97;;
11924;SDS011;6022;48.768;18.608;2023-05-07T01:26:29;2.17;;;1.97;;
11924;SDS011;6022;48.768;18.608;2023-05-07T01:28:58;1.37;;;1.13;;
11924;SDS011;6022;48.768;18.608;2023-05-07T01:31:26;2.40;;;1.40;;
11924;SDS011;6022;48.768;18.608;2023-05-07T01:33:54;8.43;;;1.57;;
11924;SDS011;6022;48.768;18.608;2023-05-07T01:36:26;4.90;;;1.80;;
11924;SDS011;6022;48.768;18.608;2023-05-07T01:38:57;1.27;;;0.97;;
11924;SDS011;6022;48.768;18.608;2023-05-07T01:41:27;1.60;;;1.50;;
11924;SDS011;6022;48.768;18.608;2023-05-07T01:43:57;1.70;;;1.50;;
11924;SDS011;6022;48.768;18.608;2023-05-07T01:46:26;2.13;;;1.50;;
11924;SDS011;6022;48.768;18.608;2023-05-07T01:48:56;1.13;;;1.13;;
11924;SDS011;6022;48.768;18.608;2023-05-07T01:51:25;1.53;;;1.37;;
11924;SDS011;6022;48.768;18.608;2023-05-07T01:53:53;2.47;;;1.47;;
11924;SDS011;6022;48.768;18.608;2023-05-07T01:56:23;2.10;;;1.50;;
11924;SDS011;6022;48.768;18.608;2023-05-07T01:58:52;1.23;;;1.23;;
11924;SDS011;6022;48.768;18.608;2023-05-07T02:01:21;1.40;;;1.30;;
11924;SDS011;6022;48.768;18.608;2023-05-07T02:03:49;0.90;;;0.90;;
11924;SDS011;6022;48.768;18.608;2023-05-07T02:06:17;11.37;;;1.93;;
11924;SDS011;6022;48.768;18.608;2023-05-07T02:08:46;1.17;;;1.07;;
11924;SDS011;6022;48.768;18.608;2023-05-07T02:11:16;1.73;;;1.63;;
11924;SDS011;6022;48.768;18.608;2023-05-07T02:13:44;1.10;;;1.00;;
11924;SDS011;6022;48.768;18.608;2023-05-07T02:16:12;1.00;;;1.00;;
11924;SDS011;6022;48.768;18.608;2023-05-07T02:18:41;2.43;;;2.23;;
11924;SDS011;6022;48.768;18.608;2023-05-07T02:21:13;1.57;;;1.47;;
11924;SDS011;6022;48.768;18.608;2023-05-07T02:23:41;2.20;;;1.37;;
11924;SDS011;6022;48.768;18.608;2023-05-07T02:26:12;2.47;;;1.37;;
11924;SDS011;6022;48.768;18.608;2023-05-07T02:28:40;2.33;;;2.13;;
11924;SDS011;6022;48.768;18.608;2023-05-07T02:31:08;1.87;;;1.40;;
11924;SDS011;6022;48.768;18.608;2023-05-07T02:33:36;1.03;;;0.93;;
11924;SDS011;6022;48.768;18.608;2023-05-07T02:36:08;2.50;;;1.67;;
11924;SDS011;6022;48.768;18.608;2023-05-07T02:38:37;1.00;;;0.97;;
11924;SDS011;6022;48.768;18.608;2023-05-07T02:41:06;1.63;;;1.10;;
11924;SDS011;6022;48.768;18.608;2023-05-07T02:43:34;1.77;;;1.50;;
11924;SDS011;6022;48.768;18.608;2023-05-07T02:46:04;2.00;;;1.53;;
11924;SDS011;6022;48.768;18.608;2023-05-07T02:48:34;2.07;;;1.87;;
11924;SDS011;6022;48.768;18.608;2023-05-07T02:51:03;3.03;;;1.77;;
11924;SDS011;6022;48.768;18.608;2023-05-07T02:53:32;2.77;;;1.73;;
11924;SDS011;6022;48.768;18.608;2023-05-07T02:56:01;1.97;;;1.73;;
11924;SDS011;6022;48.768;18.608;2023-05-07T02:58:29;2.40;;;2.20;;
11924;SDS011;6022;48.768;18.608;2023-05-07T03:00:57;1.70;;;1.60;;
11924;SDS011;6022;48.768;18.608;2023-05-07T03:03:26;2.40;;;1.80;;
11924;SDS011;6022;48.768;18.608;2023-05-07T03:05:55;1.30;;;1.13;;
11924;SDS011;6022;48.768;18.608;2023-05-07T03:08:24;2.13;;;1.87;;
11924;SDS011;6022;48.768;18.608;2023-05-07T03:10:53;3.40;;;1.87;;
11924;SDS011;6022;48.768;18.608;2023-05-07T03:13:21;3.60;;;2.30;;
11924;SDS011;6022;48.768;18.608;2023-05-07T03:15:49;1.73;;;1.27;;
11924;SDS011;6022;48.768;18.608;2023-05-07T03:18:18;3.37;;;2.23;;
11924;SDS011;6022;48.768;18.608;2023-05-07T03:20:47;2.27;;;1.73;;
11924;SDS011;6022;48.768;18.608;2023-05-07T03:23:16;1.70;;;1.53;;
11924;SDS011;6022;48.768;18.608;2023-05-07T03:25:45;8.10;;;1.93;;
11924;SDS011;6022;48.768;18.608;2023-05-07T03:28:13;1.50;;;1.40;;
11924;SDS011;6022;48.768;18.608;2023-05-07T03:30:42;3.70;;;1.33;;
11924;SDS011;6022;48.768;18.608;2023-05-07T03:33:11;2.90;;;2.30;;
11924;SDS011;6022;48.768;18.608;2023-05-07T03:35:40;2.33;;;1.87;;
11924;SDS011;6022;48.768;18.608;2023-05-07T03:38:08;6.33;;;2.67;;
11924;SDS011;6022;48.768;18.608;2023-05-07T03:40:36;4.80;;;2.57;;
11924;SDS011;6022;48.768;18.608;2023-05-07T03:43:06;2.47;;;2.00;;
11924;SDS011;6022;48.768;18.608;2023-05-07T03:45:35;4.97;;;3.07;;
11924;SDS011;6022;48.768;18.608;2023-05-07T03:48:05;3.37;;;3.07;;
11924;SDS011;6022;48.768;18.608;2023-05-07T03:50:33;3.07;;;2.67;;
11924;SDS011;6022;48.768;18.608;2023-05-07T03:53:02;3.00;;;2.40;;
11924;SDS011;6022;48.768;18.608;2023-05-07T03:55:31;3.47;;;3.10;;
11924;SDS011;6022;48.768;18.608;2023-05-07T03:57:59;5.50;;;3.50;;
11924;SDS011;6022;48.768;18.608;2023-05-07T04:00:28;4.83;;;2.90;;
11924;SDS011;6022;48.768;18.608;2023-05-07T04:03:01;4.17;;;2.47;;
11924;SDS011;6022;48.768;18.608;2023-05-07T04:05:32;7.97;;;3.00;;
11924;SDS011;6022;48.768;18.608;2023-05-07T04:08:01;3.63;;;2.77;;
11924;SDS011;6022;48.768;18.608;2023-05-07T04:10:30;2.97;;;2.67;;
11924;SDS011;6022;48.768;18.608;2023-05-07T04:12:58;3.27;;;2.67;;
11924;SDS011;6022;48.768;18.608;2023-05-07T04:15:26;5.27;;;3.10;;
11924;SDS011;6022;48.768;18.608;2023-05-07T04:17:54;3.23;;;2.67;;
11924;SDS011;6022;48.768;18.608;2023-05-07T04:20:22;5.10;;;3.33;;
11924;SDS011;6022;48.768;18.608;2023-05-07T04:23:02;4.60;;;2.77;;
11924;SDS011;6022;48.768;18.608;2023-05-07T04:25:31;3.57;;;3.07;;
11924;SDS011;6022;48.768;18.608;2023-05-07T04:28:03;4.60;;;3.40;;
11924;SDS011;6022;48.768;18.608;2023-05-07T04:30:35;5.13;;;3.90;;
11924;SDS011;6022;48.768;18.608;2023-05-07T04:33:06;3.53;;;3.23;;
11924;SDS011;6022;48.768;18.608;2023-05-07T04:35:37;6.63;;;3.97;;
11924;SDS011;6022;48.768;18.608;2023-05-07T04:38:07;3.67;;;2.83;;
11924;SDS011;6022;48.768;18.608;2023-05-07T04:40:39;4.77;;;3.63;;
11924;SDS011;6022;48.768;18.608;2023-05-07T04:43:14;4.40;;;3.70;;
11924;SDS011;6022;48.768;18.608;2023-05-07T04:45:43;3.43;;;3.07;;
11924;SDS011;6022;48.768;18.608;2023-05-07T04:48:12;4.17;;;3.13;;
11924;SDS011;6022;48.768;18.608;2023-05-07T04:50:43;4.77;;;3.40;;
11924;SDS011;6022;48.768;18.608;2023-05-07T04:53:17;3.63;;;3.33;;
11924;SDS011;6022;48.768;18.608;2023-05-07T04:55:48;4.07;;;3.17;;
11924;SDS011;6022;48.768;18.608;2023-05-07T04:58:28;5.90;;;3.73;;
11924;SDS011;6022;48.768;18.608;2023-05-07T05:01:11;2.83;;;2.63;;
11924;SDS011;6022;48.768;18.608;2023-05-07T05:04:04;12.83;;;3.80;;
11924;SDS011;6022;48.768;18.608;2023-05-07T05:06:41;4.40;;;3.43;;
11924;SDS011;6022;48.768;18.608;2023-05-07T05:09:13;4.13;;;3.30;;
11924;SDS011;6022;48.768;18.608;2023-05-07T05:12:15;4.87;;;3.87;;
11924;SDS011;6022;48.768;18.608;2023-05-07T05:14:44;4.73;;;4.27;;
11924;SDS011;6022;48.768;18.608;2023-05-07T05:17:18;4.50;;;3.50;;
11924;SDS011;6022;48.768;18.608;2023-05-07T05:19:49;5.17;;;3.83;;
11924;SDS011;6022;48.768;18.608;2023-05-07T05:22:20;6.13;;;4.67;;
11924;SDS011;6022;48.768;18.608;2023-05-07T05:24:52;5.40;;;4.33;;
11924;SDS011;6022;48.768;18.608;2023-05-07T05:27:25;6.37;;;4.47;;
11924;SDS011;6022;48.768;18.608;2023-05-07T05:30:00;5.87;;;4.30;;
11924;SDS011;6022;48.768;18.608;2023-05-07T05:32:40;4.73;;;4.10;;
11924;SDS011;6022;48.768;18.608;2023-05-07T05:35:11;5.40;;;4.40;;
11924;SDS011;6022;48.768;18.608;2023-05-07T05:37:44;7.03;;;4.90;;
11924;SDS011;6022;48.768;18.608;2023-05-07T05:40:13;5.97;;;4.93;;
11924;SDS011;6022;48.768;18.608;2023-05-07T05:42:43;6.77;;;4.67;;
11924;SDS011;6022;48.768;18.608;2023-05-07T05:45:18;6.73;;;4.90;;
11924;SDS011;6022;48.768;18.608;2023-05-07T05:47:51;5.13;;;4.27;;
11924;SDS011;6022;48.768;18.608;2023-05-07T05:50:22;5.77;;;4.33;;
11924;SDS011;6022;48.768;18.608;2023-05-07T05:52:58;4.67;;;4.23;;
11924;SDS011;6022;48.768;18.608;2023-05-07T05:55:33;8.50;;;4.20;;
11924;SDS011;6022;48.768;18.608;2023-05-07T05:58:12;5.80;;;4.27;;
11924;SDS011;6022;48.768;18.608;2023-05-07T06:00:43;6.20;;;4.73;;
11924;SDS011;6022;48.768;18.608;2023-05-07T06:03:34;6.83;;;4.80;;
11924;SDS011;6022;48.768;18.608;2023-05-07T06:06:08;6.70;;;4.63;;
11924;SDS011;6022;48.768;18.608;2023-05-07T06:08:58;4.83;;;4.23;;
11924;SDS011;6022;48.768;18.608;2023-05-07T06:11:40;4.80;;;4.07;;
11924;SDS011;6022;48.768;18.608;2023-05-07T06:14:16;5.80;;;4.90;;
11924;SDS011;6022;48.768;18.608;2023-05-07T06:16:46;6.83;;;4.93;;
11924;SDS011;6022;48.768;18.608;2023-05-07T06:19:18;5.97;;;4.57;;
11924;SDS011;6022;48.768;18.608;2023-05-07T06:21:50;5.30;;;4.37;;
11924;SDS011;6022;48.768;18.608;2023-05-07T06:24:18;6.97;;;5.00;;
11924;SDS011;6022;48.768;18.608;2023-05-07T06:26:47;6.33;;;4.57;;
11924;SDS011;6022;48.768;18.608;2023-05-07T06:29:16;7.70;;;5.13;;
11924;SDS011;6022;48.768;18.608;2023-05-07T06:34:44;6.73;;;5.07;;
11924;SDS011;6022;48.768;18.608;2023-05-07T06:39:37;5.63;;;4.23;;
11924;SDS011;6022;48.768;18.608;2023-05-07T06:42:46;6.20;;;4.93;;
11924;SDS011;6022;48.768;18.608;2023-05-07T06:45:20;4.27;;;3.90;;
11924;SDS011;6022;48.768;18.608;2023-05-07T06:47:54;5.20;;;4.27;;
11924;SDS011;6022;48.768;18.608;2023-05-07T06:56:52;6.40;;;4.00;;
11924;SDS011;6022;48.768;18.608;2023-05-07T06:59:20;4.20;;;3.67;;
11924;SDS011;6022;48.768;18.608;2023-05-07T07:01:49;4.50;;;3.57;;
11924;SDS011;6022;48.768;18.608;2023-05-07T07:04:20;7.43;;;4.00;;
11924;SDS011;6022;48.768;18.608;2023-05-07T07:06:51;4.00;;;3.70;;
11924;SDS011;6022;48.768;18.608;2023-05-07T07:09:22;3.83;;;3.47;;
11924;SDS011;6022;48.768;18.608;2023-05-07T07:11:50;4.03;;;3.63;;
11924;SDS011;6022;48.768;18.608;2023-05-07T07:14:18;4.37;;;3.63;;
11924;SDS011;6022;48.768;18.608;2023-05-07T07:16:47;3.83;;;3.20;;
11924;SDS011;6022;48.768;18.608;2023-05-07T07:19:16;5.40;;;2.73;;
11924;SDS011;6022;48.768;18.608;2023-05-07T07:21:47;3.93;;;3.27;;
11924;SDS011;6022;48.768;18.608;2023-05-07T07:24:22;5.53;;;3.93;;
11924;SDS011;6022;48.768;18.608;2023-05-07T07:26:58;3.87;;;3.17;;
11924;SDS011;6022;48.768;18.608;2023-05-07T07:29:27;3.97;;;3.33;;
11924;SDS011;6022;48.768;18.608;2023-05-07T07:31:59;3.70;;;2.70;;
11924;SDS011;6022;48.768;18.608;2023-05-07T07:34:29;2.77;;;2.47;;
11924;SDS011;6022;48.768;18.608;2023-05-07T07:37:02;5.30;;;3.47;;
11924;SDS011;6022;48.768;18.608;2023-05-07T07:39:37;4.40;;;3.43;;
11924;SDS011;6022;48.768;18.608;2023-05-07T07:42:17;4.27;;;3.33;;
11924;SDS011;6022;48.768;18.608;2023-05-07T07:44:46;3.17;;;2.87;;
11924;SDS011;6022;48.768;18.608;2023-05-07T07:47:19;2.80;;;2.50;;
11924;SDS011;6022;48.768;18.608;2023-05-07T07:49:57;6.23;;;3.17;;
11924;SDS011;6022;48.768;18.608;2023-05-07T07:52:27;4.73;;;2.90;;
11924;SDS011;6022;48.768;18.608;2023-05-07T07:54:55;3.47;;;2.60;;
11924;SDS011;6022;48.768;18.608;2023-05-07T07:57:25;3.87;;;3.40;;
11924;SDS011;6022;48.768;18.608;2023-05-07T07:59:54;4.77;;;3.23;;
11924;SDS011;6022;48.768;18.608;2023-05-07T08:02:24;4.87;;;3.50;;
11924;SDS011;6022;48.768;18.608;2023-05-07T08:04:52;3.80;;;3.00;;
11924;SDS011;6022;48.768;18.608;2023-05-07T08:10:08;4.07;;;3.00;;
11924;SDS011;6022;48.768;18.608;2023-05-07T08:12:55;2.53;;;2.17;;
11924;SDS011;6022;48.768;18.608;2023-05-07T08:15:31;3.37;;;2.63;;
11924;SDS011;6022;48.768;18.608;2023-05-07T08:18:03;2.73;;;2.10;;
11924;SDS011;6022;48.768;18.608;2023-05-07T08:20:36;3.83;;;2.77;;
11924;SDS011;6022;48.768;18.608;2023-05-07T08:23:11;1.83;;;1.73;;
11924;SDS011;6022;48.768;18.608;2023-05-07T08:25:52;3.13;;;2.40;;
11924;SDS011;6022;48.768;18.608;2023-05-07T08:28:24;3.20;;;2.90;;
11924;SDS011;6022;48.768;18.608;2023-05-07T08:30:56;3.20;;;2.90;;
11924;SDS011;6022;48.768;18.608;2023-05-07T08:33:29;3.13;;;2.20;;
11924;SDS011;6022;48.768;18.608;2023-05-07T08:36:06;2.63;;;2.43;;
11924;SDS011;6022;48.768;18.608;2023-05-07T08:38:36;2.07;;;1.90;;
11924;SDS011;6022;48.768;18.608;2023-05-07T08:41:08;2.93;;;2.73;;
11924;SDS011;6022;48.768;18.608;2023-05-07T08:43:41;3.57;;;2.60;;
11924;SDS011;6022;48.768;18.608;2023-05-07T08:46:20;2.53;;;2.00;;
11924;SDS011;6022;48.768;18.608;2023-05-07T08:48:51;2.50;;;2.30;;
11924;SDS011;6022;48.768;18.608;2023-05-07T08:51:20;2.10;;;1.90;;
11924;SDS011;6022;48.768;18.608;2023-05-07T08:53:52;2.93;;;2.63;;
11924;SDS011;6022;48.768;18.608;2023-05-07T08:56:23;4.37;;;2.80;;
11924;SDS011;6022;48.768;18.608;2023-05-07T08:59:10;2.90;;;2.50;;
11924;SDS011;6022;48.768;18.608;2023-05-07T09:02:10;4.27;;;2.27;;
11924;SDS011;6022;48.768;18.608;2023-05-07T09:05:06;3.73;;;2.43;;
11924;SDS011;6022;48.768;18.608;2023-05-07T09:08:07;2.63;;;2.40;;
11924;SDS011;6022;48.768;18.608;2023-05-07T09:10:54;1.63;;;1.53;;
11924;SDS011;6022;48.768;18.608;2023-05-07T09:13:24;2.83;;;2.20;;
11924;SDS011;6022;48.768;18.608;2023-05-07T09:16:09;2.20;;;2.00;;
11924;SDS011;6022;48.768;18.608;2023-05-07T09:19:25;2.80;;;2.50;;
11924;SDS011;6022;48.768;18.608;2023-05-07T09:21:59;2.67;;;2.47;;
11924;SDS011;6022;48.768;18.608;2023-05-07T09:24:42;2.63;;;1.93;;
11924;SDS011;6022;48.768;18.608;2023-05-07T09:27:21;2.50;;;2.30;;
11924;SDS011;6022;48.768;18.608;2023-05-07T09:29:49;3.03;;;1.93;;
11924;SDS011;6022;48.768;18.608;2023-05-07T09:32:26;2.13;;;1.93;;
11924;SDS011;6022;48.768;18.608;2023-05-07T09:34:57;2.23;;;2.03;;
11924;SDS011;6022;48.768;18.608;2023-05-07T09:37:28;4.73;;;2.47;;
11924;SDS011;6022;48.768;18.608;2023-05-07T09:39:59;2.63;;;2.43;;
11924;SDS011;6022;48.768;18.608;2023-05-07T09:42:28;3.03;;;1.97;;
11924;SDS011;6022;48.768;18.608;2023-05-07T09:44:58;2.60;;;2.07;;
11924;SDS011;6022;48.768;18.608;2023-05-07T09:47:27;2.50;;;2.30;;
11924;SDS011;6022;48.768;18.608;2023-05-07T09:50:03;2.63;;;2.43;;
11924;SDS011;6022;48.768;18.608;2023-05-07T09:52:41;2.13;;;2.00;;
11924;SDS011;6022;48.768;18.608;2023-05-07T09:55:11;2.37;;;2.27;;
11924;SDS011;6022;48.768;18.608;2023-05-07T09:57:42;1.87;;;1.77;;
11924;SDS011;6022;48.768;18.608;2023-05-07T10:00:13;2.57;;;2.27;;
11924;SDS011;6022;48.768;18.608;2023-05-07T10:02:46;3.20;;;2.17;;
11924;SDS011;6022;48.768;18.608;2023-05-07T10:05:27;1.60;;;1.50;;
11924;SDS011;6022;48.768;18.608;2023-05-07T10:07:59;2.73;;;2.53;;
11924;SDS011;6022;48.768;18.608;2023-05-07T10:10:33;2.53;;;1.97;;
11924;SDS011;6022;48.768;18.608;2023-05-07T10:13:04;2.30;;;2.03;;
11924;SDS011;6022;48.768;18.608;2023-05-07T10:15:37;2.40;;;2.20;;
11924;SDS011;6022;48.768;18.608;2023-05-07T10:18:09;1.97;;;1.87;;
11924;SDS011;6022;48.768;18.608;2023-05-07T10:20:43;1.60;;;1.50;;
11924;SDS011;6022;48.768;18.608;2023-05-07T10:23:14;2.33;;;2.00;;
11924;SDS011;6022;48.768;18.608;2023-05-07T10:25:52;2.53;;;1.70;;
11924;SDS011;6022;48.768;18.608;2023-05-07T10:28:27;2.43;;;2.20;;
11924;SDS011;6022;48.768;18.608;2023-05-07T10:33:43;1.83;;;1.73;;
11924;SDS011;6022;48.768;18.608;2023-05-07T10:36:15;2.13;;;1.93;;
11924;SDS011;6022;48.768;18.608;2023-05-07T10:38:46;2.47;;;2.27;;
11924;SDS011;6022;48.768;18.608;2023-05-07T10:41:14;2.67;;;2.20;;
11924;SDS011;6022;48.768;18.608;2023-05-07T10:43:46;2.07;;;1.90;;
11924;SDS011;6022;48.768;18.608;2023-05-07T10:46:19;2.27;;;2.07;;
11924;SDS011;6022;48.768;18.608;2023-05-07T10:51:30;2.37;;;2.17;;
11924;SDS011;6022;48.768;18.608;2023-05-07T10:56:40;2.63;;;1.97;;
11924;SDS011;6022;48.768;18.608;2023-05-07T11:01:50;2.40;;;2.20;;
11924;SDS011;6022;48.768;18.608;2023-05-07T11:04:31;2.63;;;2.23;;
11924;SDS011;6022;48.768;18.608;2023-05-07T11:15:07;2.57;;;2.37;;
11924;SDS011;6022;48.768;18.608;2023-05-07T11:17:54;2.43;;;2.20;;
11924;SDS011;6022;48.768;18.608;2023-05-07T11:26:06;2.47;;;2.17;;
11924;SDS011;6022;48.768;18.608;2023-05-07T11:28:39;2.33;;;2.07;;
11924;SDS011;6022;48.768;18.608;2023-05-07T11:31:10;2.43;;;2.20;;
11924;SDS011;6022;48.768;18.608;2023-05-07T11:33:39;3.07;;;2.60;;
11924;SDS011;6022;48.768;18.608;2023-05-07T11:36:08;3.97;;;2.50;;
11924;SDS011;6022;48.768;18.608;2023-05-07T11:38:38;2.73;;;2.07;;
11924;SDS011;6022;48.768;18.608;2023-05-07T11:41:07;2.83;;;2.50;;
11924;SDS011;6022;48.768;18.608;2023-05-07T11:43:58;3.17;;;2.23;;
11924;SDS011;6022;48.768;18.608;2023-05-07T11:46:43;3.60;;;2.90;;
11924;SDS011;6022;48.768;18.608;2023-05-07T11:49:15;2.30;;;2.10;;
11924;SDS011;6022;48.768;18.608;2023-05-07T11:51:45;2.23;;;2.03;;
11924;SDS011;6022;48.768;18.608;2023-05-07T11:54:15;2.53;;;2.33;;
11924;SDS011;6022;48.768;18.608;2023-05-07T11:56:43;2.50;;;2.30;;
11924;SDS011;6022;48.768;18.608;2023-05-07T11:59:16;2.90;;;2.70;;
11924;SDS011;6022;48.768;18.608;2023-05-07T12:01:46;3.10;;;2.47;;
11924;SDS011;6022;48.768;18.608;2023-05-07T12:04:18;2.63;;;1.93;;
11924;SDS011;6022;48.768;18.608;2023-05-07T12:06:48;2.70;;;2.50;;
11924;SDS011;6022;48.768;18.608;2023-05-07T12:09:21;2.47;;;2.20;;
11924;SDS011;6022;48.768;18.608;2023-05-07T12:11:51;2.90;;;2.70;;
11924;SDS011;6022;48.768;18.608;2023-05-07T12:14:26;2.90;;;2.60;;
11924;SDS011;6022;48.768;18.608;2023-05-07T12:16:56;3.23;;;2.73;;
11924;SDS011;6022;48.768;18.608;2023-05-07T12:19:27;3.23;;;2.50;;
11924;SDS011;6022;48.768;18.608;2023-05-07T12:21:58;3.43;;;2.73;;
11924;SDS011;6022;48.768;18.608;2023-05-07T12:24:28;2.70;;;2.50;;
11924;SDS011;6022;48.768;18.608;2023-05-07T12:27:09;3.77;;;2.50;;
11924;SDS011;6022;48.768;18.608;2023-05-07T12:29:38;2.80;;;2.60;;
11924;SDS011;6022;48.768;18.608;2023-05-07T12:32:13;2.80;;;2.30;;
11924;SDS011;6022;48.768;18.608;2023-05-07T12:34:57;2.40;;;2.20;;
11924;SDS011;6022;48.768;18.608;2023-05-07T12:37:26;3.70;;;2.87;;
11924;SDS011;6022;48.768;18.608;2023-05-07T12:42:37;3.57;;;2.83;;
11924;SDS011;6022;48.768;18.608;2023-05-07T12:45:09;3.87;;;2.50;;
11924;SDS011;6022;48.768;18.608;2023-05-07T12:47:47;2.77;;;2.57;;
11924;SDS011;6022;48.768;18.608;2023-05-07T12:50:17;2.70;;;2.33;;
11924;SDS011;6022;48.768;18.608;2023-05-07T12:52:48;2.60;;;2.03;;
11924;SDS011;6022;48.768;18.608;2023-05-07T12:55:17;3.87;;;2.77;;
11924;SDS011;6022;48.768;18.608;2023-05-07T12:57:48;2.87;;;2.53;;
11924;SDS011;6022;48.768;18.608;2023-05-07T13:00:35;3.63;;;2.90;;
11924;SDS011;6022;48.768;18.608;2023-05-07T13:03:05;2.80;;;2.23;;
11924;SDS011;6022;48.768;18.608;2023-05-07T13:05:34;3.43;;;2.47;;
11924;SDS011;6022;48.768;18.608;2023-05-07T13:08:03;3.97;;;2.50;;
11924;SDS011;6022;48.768;18.608;2023-05-07T13:10:32;2.43;;;2.23;;
11924;SDS011;6022;48.768;18.608;2023-05-07T13:13:01;2.83;;;2.60;;
11924;SDS011;6022;48.768;18.608;2023-05-07T13:15:31;4.73;;;2.50;;
11924;SDS011;6022;48.768;18.608;2023-05-07T13:18:00;2.53;;;2.30;;
11924;SDS011;6022;48.768;18.608;2023-05-07T13:20:29;2.50;;;2.30;;
11924;SDS011;6022;48.768;18.608;2023-05-07T13:23:00;2.20;;;2.03;;
11924;SDS011;6022;48.768;18.608;2023-05-07T13:25:34;2.33;;;2.13;;
11924;SDS011;6022;48.768;18.608;2023-05-07T13:28:05;3.17;;;1.80;;
11924;SDS011;6022;48.768;18.608;2023-05-07T13:30:37;2.60;;;2.40;;
11924;SDS011;6022;48.768;18.608;2023-05-07T13:33:26;3.37;;;2.83;;
11924;SDS011;6022;48.768;18.608;2023-05-07T13:36:01;2.57;;;2.27;;
11924;SDS011;6022;48.768;18.608;2023-05-07T13:38:34;2.27;;;2.07;;
11924;SDS011;6022;48.768;18.608;2023-05-07T13:41:11;5.23;;;2.10;;
11924;SDS011;6022;48.768;18.608;2023-05-07T13:43:49;3.13;;;2.10;;
11924;SDS011;6022;48.768;18.608;2023-05-07T13:46:18;2.33;;;2.13;;
11924;SDS011;6022;48.768;18.608;2023-05-07T13:49:00;2.17;;;1.87;;
11924;SDS011;6022;48.768;18.608;2023-05-07T13:51:30;2.77;;;2.33;;
11924;SDS011;6022;48.768;18.608;2023-05-07T13:54:02;1.97;;;1.60;;
11924;SDS011;6022;48.768;18.608;2023-05-07T13:56:31;3.13;;;2.43;;
11924;SDS011;6022;48.768;18.608;2023-05-07T13:59:02;3.73;;;2.43;;
11924;SDS011;6022;48.768;18.608;2023-05-07T14:01:31;3.03;;;2.63;;
11924;SDS011;6022;48.768;18.608;2023-05-07T14:04:01;2.33;;;1.97;;
11924;SDS011;6022;48.768;18.608;2023-05-07T14:06:30;2.20;;;2.00;;
11924;SDS011;6022;48.768;18.608;2023-05-07T14:08:58;2.57;;;2.13;;
11924;SDS011;6022;48.768;18.608;2023-05-07T14:11:27;2.73;;;2.40;;
11924;SDS011;6022;48.768;18.608;2023-05-07T14:13:57;1.90;;;1.80;;
11924;SDS011;6022;48.768;18.608;2023-05-07T14:16:28;2.17;;;2.00;;
11924;SDS011;6022;48.768;18.608;2023-05-07T14:18:56;3.57;;;2.10;;
11924;SDS011;6022;48.768;18.608;2023-05-07T14:21:25;3.50;;;2.47;;
11924;SDS011;6022;48.768;18.608;2023-05-07T14:23:53;2.67;;;2.40;;
11924;SDS011;6022;48.768;18.608;2023-05-07T14:26:23;3.57;;;2.77;;
11924;SDS011;6022;48.768;18.608;2023-05-07T14:28:50;2.73;;;2.20;;
11924;SDS011;6022;48.768;18.608;2023-05-07T14:31:19;1.97;;;1.87;;
11924;SDS011;6022;48.768;18.608;2023-05-07T14:33:48;2.20;;;1.83;;
11924;SDS011;6022;48.768;18.608;2023-05-07T14:36:19;2.47;;;2.10;;
11924;SDS011;6022;48.768;18.608;2023-05-07T14:38:52;2.37;;;2.13;;
11924;SDS011;6022;48.768;18.608;2023-05-07T14:41:21;4.83;;;2.13;;
11924;SDS011;6022;48.768;18.608;2023-05-07T14:43:54;2.97;;;2.57;;
11924;SDS011;6022;48.768;18.608;2023-05-07T14:46:26;2.50;;;2.30;;
11924;SDS011;6022;48.768;18.608;2023-05-07T14:48:54;2.33;;;2.07;;
11924;SDS011;6022;48.768;18.608;2023-05-07T14:51:24;3.63;;;2.90;;
11924;SDS011;6022;48.768;18.608;2023-05-07T14:53:52;3.00;;;2.73;;
11924;SDS011;6022;48.768;18.608;2023-05-07T14:56:21;3.83;;;2.90;;
11924;SDS011;6022;48.768;18.608;2023-05-07T14:58:49;3.07;;;2.80;;
11924;SDS011;6022;48.768;18.608;2023-05-07T15:01:17;3.00;;;2.70;;
11924;SDS011;6022;48.768;18.608;2023-05-07T15:03:47;2.77;;;2.50;;
11924;SDS011;6022;48.768;18.608;2023-05-07T15:06:16;2.53;;;2.33;;
11924;SDS011;6022;48.768;18.608;2023-05-07T15:08:45;5.83;;;2.73;;
11924;SDS011;6022;48.768;18.608;2023-05-07T15:11:14;3.53;;;2.80;;
11924;SDS011;6022;48.768;18.608;2023-05-07T15:13:44;3.87;;;3.27;;
11924;SDS011;6022;48.768;18.608;2023-05-07T15:16:13;3.90;;;3.47;;
11924;SDS011;6022;48.768;18.608;2023-05-07T15:18:42;3.27;;;3.00;;
11924;SDS011;6022;48.768;18.608;2023-05-07T15:21:11;3.37;;;3.07;;
11924;SDS011;6022;48.768;18.608;2023-05-07T15:23:40;3.60;;;2.80;;
11924;SDS011;6022;48.768;18.608;2023-05-07T15:26:11;3.33;;;2.80;;
11924;SDS011;6022;48.768;18.608;2023-05-07T15:28:43;4.67;;;3.23;;
11924;SDS011;6022;48.768;18.608;2023-05-07T15:31:17;4.20;;;3.40;;
11924;SDS011;6022;48.768;18.608;2023-05-07T15:34:22;4.37;;;3.20;;
11924;SDS011;6022;48.768;18.608;2023-05-07T15:37:07;4.30;;;3.67;;
11924;SDS011;6022;48.768;18.608;2023-05-07T15:39:38;5.30;;;3.23;;
11924;SDS011;6022;48.768;18.608;2023-05-07T15:42:06;5.03;;;3.40;;
11924;SDS011;6022;48.768;18.608;2023-05-07T15:44:37;4.30;;;3.20;;
11924;SDS011;6022;48.768;18.608;2023-05-07T15:47:06;5.03;;;3.83;;
11924;SDS011;6022;48.768;18.608;2023-05-07T15:49:38;5.13;;;3.80;;
11924;SDS011;6022;48.768;18.608;2023-05-07T15:52:06;6.00;;;3.93;;
11924;SDS011;6022;48.768;18.608;2023-05-07T15:54:37;3.43;;;3.17;;
11924;SDS011;6022;48.768;18.608;2023-05-07T15:57:12;7.43;;;5.50;;
11924;SDS011;6022;48.768;18.608;2023-05-07T15:59:49;4.37;;;3.27;;